sensor_id;sensor_type;location;lat;lon;timestamp;pressure;altitude;pressure_sealevel;temperature;humidity
11487;BME280;10510;47.942;9.442;2023-03-03T00:01:34;94667.22;;;-0.73;100.00
11487;BME280;10510;47.942;9.442;2023-03-03T00:03:35;94666.38;;;-0.74;100.00
11487;BME280;10510;47.942;9.442;2023-03-03T00:05:35;94676.56;;;-0.72;100.00
11487;BME280;10510;47.942;9.442;2023-03-03T00:07:36;94663.72;;;-0.72;100.00
11487;BME280;10510;47.942;9.442;2023-03-03T00:09:36;94670.47;;;-0.71;100.00
11487;BME280;10510;47.942;9.442;2023-03-03T00:11:36;94672.00;;;-0.69;100.00
11487;BME280;10510;47.942;9.442;2023-03-03T00:13:48;94669.34;;;-0.67;100.00
11487;BME280;10510;47.942;9.442;2023-03-03T00:15:49;94673.53;;;-0.66;100.00
11487;BME280;10510;47.942;9.442;2023-03-03T00:17:52;94668.53;;;-0.67;100.00
11487;BME280;10510;47.942;9.442;2023-03-03T00:19:52;94669.34;;;-0.67;100.00
11487;BME280;10510;47.942;9.442;2023-03-03T00:21:56;94671.91;;;-0.67;100.00
11487;BME280;10510;47.942;9.442;2023-03-03T00:24:10;94673.53;;;-0.66;100.00
11487;BME280;10510;47.942;9.442;2023-03-03T00:26:21;94675.28;;;-0.66;100.00
11487;BME280;10510;47.942;9.442;2023-03-03T00:28:35;94674.47;;;-0.67;100.00
11487;BME280;10510;47.942;9.442;2023-03-03T00:30:40;94665.97;;;-0.67;100.00
11487;BME280;10510;47.942;9.442;2023-03-03T00:32:44;94670.97;;;-0.66;100.00
11487;BME280;10510;47.942;9.442;2023-03-03T00:34:51;94664.19;;;-0.67;100.00
11487;BME280;10510;47.942;9.442;2023-03-03T00:36:54;94670.25;;;-0.68;100.00
11487;BME280;10510;47.942;9.442;2023-03-03T00:39:16;94676.31;;;-0.69;100.00
11487;BME280;10510;47.942;9.442;2023-03-03T00:41:25;94674.81;;;-0.72;100.00
11487;BME280;10510;47.942;9.442;2023-03-03T00:43:34;94670.59;;;-0.73;100.00
11487;BME280;10510;47.942;9.442;2023-03-03T00:45:49;94662.19;;;-0.75;100.00
11487;BME280;10510;47.942;9.442;2023-03-03T00:47:50;94663.94;;;-0.75;100.00
11487;BME280;10510;47.942;9.442;2023-03-03T00:49:51;94660.66;;;-0.77;100.00
11487;BME280;10510;47.942;9.442;2023-03-03T00:51:52;94657.41;;;-0.79;100.00
11487;BME280;10510;47.942;9.442;2023-03-03T00:53:53;94662.78;;;-0.82;100.00
11487;BME280;10510;47.942;9.442;2023-03-03T00:55:54;94663.91;;;-0.86;100.00
11487;BME280;10510;47.942;9.442;2023-03-03T00:57:54;94665.31;;;-0.94;100.00
11487;BME280;10510;47.942;9.442;2023-03-03T00:59:55;94664.00;;;-0.99;100.00
11487;BME280;10510;47.942;9.442;2023-03-03T01:01:55;94666.09;;;-1.04;100.00
11487;BME280;10510;47.942;9.442;2023-03-03T01:03:55;94662.13;;;-1.08;100.00
11487;BME280;10510;47.942;9.442;2023-03-03T01:05:55;94663.16;;;-1.11;100.00
11487;BME280;10510;47.942;9.442;2023-03-03T01:07:56;94662.56;;;-1.15;100.00
11487;BME280;10510;47.942;9.442;2023-03-03T01:09:56;94666.88;;;-1.15;100.00
11487;BME280;10510;47.942;9.442;2023-03-03T01:11:57;94662.81;;;-1.18;100.00
11487;BME280;10510;47.942;9.442;2023-03-03T01:13:57;94664.66;;;-1.20;100.00
11487;BME280;10510;47.942;9.442;2023-03-03T01:15:59;94663.13;;;-1.22;100.00
11487;BME280;10510;47.942;9.442;2023-03-03T01:18:00;94669.41;;;-1.26;100.00
11487;BME280;10510;47.942;9.442;2023-03-03T01:20:01;94662.03;;;-1.31;100.00
11487;BME280;10510;47.942;9.442;2023-03-03T01:22:01;94664.81;;;-1.34;100.00
11487;BME280;10510;47.942;9.442;2023-03-03T01:24:02;94663.28;;;-1.37;100.00
11487;BME280;10510;47.942;9.442;2023-03-03T01:26:03;94666.09;;;-1.40;100.00
11487;BME280;10510;47.942;9.442;2023-03-03T01:28:03;94672.38;;;-1.44;100.00
11487;BME280;10510;47.942;9.442;2023-03-03T01:30:05;94668.38;;;-1.48;100.00
11487;BME280;10510;47.942;9.442;2023-03-03T01:32:07;94670.34;;;-1.51;100.00
11487;BME280;10510;47.942;9.442;2023-03-03T01:34:07;94670.66;;;-1.56;100.00
11487;BME280;10510;47.942;9.442;2023-03-03T01:36:07;94665.06;;;-1.61;100.00
11487;BME280;10510;47.942;9.442;2023-03-03T01:38:08;94671.31;;;-1.65;100.00
11487;BME280;10510;47.942;9.442;2023-03-03T01:40:17;94674.09;;;-1.68;100.00
11487;BME280;10510;47.942;9.442;2023-03-03T01:42:18;94667.56;;;-1.72;100.00
11487;BME280;10510;47.942;9.442;2023-03-03T01:44:19;94666.97;;;-1.76;100.00
11487;BME280;10510;47.942;9.442;2023-03-03T01:46:25;94667.19;;;-1.79;100.00
11487;BME280;10510;47.942;9.442;2023-03-03T01:48:31;94663.31;;;-1.85;100.00
11487;BME280;10510;47.942;9.442;2023-03-03T01:50:54;94660.13;;;-1.88;100.00
11487;BME280;10510;47.942;9.442;2023-03-03T01:52:57;94657.88;;;-1.93;100.00
11487;BME280;10510;47.942;9.442;2023-03-03T01:55:03;94655.63;;;-1.97;100.00
11487;BME280;10510;47.942;9.442;2023-03-03T01:57:07;94654.22;;;-2.01;100.00
11487;BME280;10510;47.942;9.442;2023-03-03T01:59:13;94653.84;;;-2.08;100.00
11487;BME280;10510;47.942;9.442;2023-03-03T02:01:19;94657.72;;;-2.15;100.00
11487;BME280;10510;47.942;9.442;2023-03-03T02:03:22;94655.72;;;-2.23;100.00
11487;BME280;10510;47.942;9.442;2023-03-03T02:05:23;94660.63;;;-2.33;100.00
11487;BME280;10510;47.942;9.442;2023-03-03T02:07:25;94657.78;;;-2.41;100.00
11487;BME280;10510;47.942;9.442;2023-03-03T02:09:44;94656.56;;;-2.48;100.00
11487;BME280;10510;47.942;9.442;2023-03-03T02:11:50;94652.56;;;-2.52;100.00
11487;BME280;10510;47.942;9.442;2023-03-03T02:13:51;94653.59;;;-2.55;100.00
11487;BME280;10510;47.942;9.442;2023-03-03T02:15:52;94648.69;;;-2.58;100.00
11487;BME280;10510;47.942;9.442;2023-03-03T02:17:54;94648.78;;;-2.59;100.00
11487;BME280;10510;47.942;9.442;2023-03-03T02:20:24;94644.72;;;-2.62;100.00
11487;BME280;10510;47.942;9.442;2023-03-03T02:22:35;94642.31;;;-2.65;100.00
11487;BME280;10510;47.942;9.442;2023-03-03T02:24:42;94642.66;;;-2.69;100.00
11487;BME280;10510;47.942;9.442;2023-03-03T02:26:44;94643.59;;;-2.70;100.00
11487;BME280;10510;47.942;9.442;2023-03-03T02:28:45;94650.53;;;-2.72;100.00
11487;BME280;10510;47.942;9.442;2023-03-03T02:30:45;94649.94;;;-2.76;100.00
11487;BME280;10510;47.942;9.442;2023-03-03T02:32:45;94656.06;;;-2.79;100.00
11487;BME280;10510;47.942;9.442;2023-03-03T02:34:47;94644.28;;;-2.81;100.00
11487;BME280;10510;47.942;9.442;2023-03-03T02:36:48;94648.69;;;-2.83;100.00
11487;BME280;10510;47.942;9.442;2023-03-03T02:38:58;94645.44;;;-2.85;100.00
11487;BME280;10510;47.942;9.442;2023-03-03T02:43:26;94645.00;;;-2.92;100.00
11487;BME280;10510;47.942;9.442;2023-03-03T02:45:30;94646.84;;;-2.94;100.00
11487;BME280;10510;47.942;9.442;2023-03-03T02:47:31;94635.91;;;-2.96;100.00
11487;BME280;10510;47.942;9.442;2023-03-03T02:49:33;94640.28;;;-2.98;100.00
11487;BME280;10510;47.942;9.442;2023-03-03T02:51:35;94636.31;;;-3.02;100.00
11487;BME280;10510;47.942;9.442;2023-03-03T02:53:35;94631.41;;;-3.05;100.00
11487;BME280;10510;47.942;9.442;2023-03-03T02:55:36;94645.28;;;-3.09;100.00
11487;BME280;10510;47.942;9.442;2023-03-03T02:57:36;94638.81;;;-3.15;100.00
11487;BME280;10510;47.942;9.442;2023-03-03T02:59:36;94637.53;;;-3.21;100.00
11487;BME280;10510;47.942;9.442;2023-03-03T03:01:37;94634.22;;;-3.23;100.00
11487;BME280;10510;47.942;9.442;2023-03-03T03:03:37;94630.13;;;-3.25;100.00
11487;BME280;10510;47.942;9.442;2023-03-03T03:05:37;94631.97;;;-3.27;100.00
11487;BME280;10510;47.942;9.442;2023-03-03T03:07:38;94637.19;;;-3.29;100.00
11487;BME280;10510;47.942;9.442;2023-03-03T03:09:38;94629.59;;;-3.30;100.00
11487;BME280;10510;47.942;9.442;2023-03-03T03:11:39;94632.28;;;-3.32;100.00
11487;BME280;10510;47.942;9.442;2023-03-03T03:13:40;94624.69;;;-3.33;100.00
11487;BME280;10510;47.942;9.442;2023-03-03T03:15:40;94625.72;;;-3.36;100.00
11487;BME280;10510;47.942;9.442;2023-03-03T03:17:41;94629.19;;;-3.37;100.00
11487;BME280;10510;47.942;9.442;2023-03-03T03:19:41;94627.56;;;-3.38;100.00
11487;BME280;10510;47.942;9.442;2023-03-03T03:21:41;94633.56;;;-3.39;100.00
11487;BME280;10510;47.942;9.442;2023-03-03T03:23:42;94633.56;;;-3.39;100.00
11487;BME280;10510;47.942;9.442;2023-03-03T03:25:42;94631.94;;;-3.40;100.00
11487;BME280;10510;47.942;9.442;2023-03-03T03:27:45;94627.03;;;-3.43;100.00
11487;BME280;10510;47.942;9.442;2023-03-03T03:29:46;94630.59;;;-3.46;100.00
11487;BME280;10510;47.942;9.442;2023-03-03T03:31:46;94628.13;;;-3.47;100.00
11487;BME280;10510;47.942;9.442;2023-03-03T03:33:46;94634.19;;;-3.48;100.00
11487;BME280;10510;47.942;9.442;2023-03-03T03:35:47;94632.53;;;-3.49;100.00
11487;BME280;10510;47.942;9.442;2023-03-03T03:37:47;94637.66;;;-3.49;100.00
11487;BME280;10510;47.942;9.442;2023-03-03T03:39:48;94639.47;;;-3.51;100.00
11487;BME280;10510;47.942;9.442;2023-03-03T03:41:48;94646.34;;;-3.52;100.00
11487;BME280;10510;47.942;9.442;2023-03-03T03:43:48;94649.69;;;-3.51;100.00
11487;BME280;10510;47.942;9.442;2023-03-03T03:45:49;94648.78;;;-3.50;100.00
11487;BME280;10510;47.942;9.442;2023-03-03T03:47:49;94650.53;;;-3.51;100.00
11487;BME280;10510;47.942;9.442;2023-03-03T03:49:49;94650.63;;;-3.52;100.00
11487;BME280;10510;47.942;9.442;2023-03-03T03:51:49;94648.97;;;-3.53;100.00
11487;BME280;10510;47.942;9.442;2023-03-03T03:53:50;94656.63;;;-3.53;100.00
11487;BME280;10510;47.942;9.442;2023-03-03T03:55:50;94647.34;;;-3.54;100.00
11487;BME280;10510;47.942;9.442;2023-03-03T03:57:50;94653.19;;;-3.52;100.00
11487;BME280;10510;47.942;9.442;2023-03-03T03:59:51;94646.34;;;-3.52;100.00
11487;BME280;10510;47.942;9.442;2023-03-03T04:01:51;94648.78;;;-3.50;100.00
11487;BME280;10510;47.942;9.442;2023-03-03T04:03:51;94651.25;;;-3.49;100.00
11487;BME280;10510;47.942;9.442;2023-03-03T04:05:52;94636.53;;;-3.45;100.00
11487;BME280;10510;47.942;9.442;2023-03-03T04:07:53;94644.63;;;-3.38;100.00
11487;BME280;10510;47.942;9.442;2023-03-03T04:09:53;94640.84;;;-3.33;100.00
11487;BME280;10510;47.942;9.442;2023-03-03T04:11:53;94636.56;;;-3.32;100.00
11487;BME280;10510;47.942;9.442;2023-03-03T04:13:53;94649.38;;;-3.32;100.00
11487;BME280;10510;47.942;9.442;2023-03-03T04:15:54;94639.13;;;-3.32;100.00
11487;BME280;10510;47.942;9.442;2023-03-03T04:17:54;94640.66;;;-3.30;100.00
11487;BME280;10510;47.942;9.442;2023-03-03T04:19:54;94638.94;;;-3.29;100.00
11487;BME280;10510;47.942;9.442;2023-03-03T04:21:54;94643.94;;;-3.28;100.00
11487;BME280;10510;47.942;9.442;2023-03-03T04:23:55;94645.34;;;-3.24;100.00
11487;BME280;10510;47.942;9.442;2023-03-03T04:25:55;94654.56;;;-3.21;100.00
11487;BME280;10510;47.942;9.442;2023-03-03T04:27:55;94649.25;;;-3.18;100.00
11487;BME280;10510;47.942;9.442;2023-03-03T04:29:56;94654.81;;;-3.11;100.00
11487;BME280;10510;47.942;9.442;2023-03-03T04:31:56;94655.31;;;-3.06;100.00
11487;BME280;10510;47.942;9.442;2023-03-03T04:33:56;94649.09;;;-3.02;100.00
11487;BME280;10510;47.942;9.442;2023-03-03T04:35:56;94646.22;;;-2.98;100.00
11487;BME280;10510;47.942;9.442;2023-03-03T04:37:57;94650.09;;;-2.92;100.00
11487;BME280;10510;47.942;9.442;2023-03-03T04:39:57;94649.09;;;-2.89;100.00
11487;BME280;10510;47.942;9.442;2023-03-03T04:41:57;94640.41;;;-2.87;100.00
11487;BME280;10510;47.942;9.442;2023-03-03T04:43:58;94639.66;;;-2.89;100.00
11487;BME280;10510;47.942;9.442;2023-03-03T04:45:58;94637.13;;;-2.89;100.00
11487;BME280;10510;47.942;9.442;2023-03-03T04:47:58;94637.03;;;-2.87;100.00
11487;BME280;10510;47.942;9.442;2023-03-03T04:49:58;94648.88;;;-2.86;100.00
11487;BME280;10510;47.942;9.442;2023-03-03T04:51:59;94645.44;;;-2.85;100.00
11487;BME280;10510;47.942;9.442;2023-03-03T04:54:00;94648.69;;;-2.83;100.00
11487;BME280;10510;47.942;9.442;2023-03-03T04:56:00;94645.09;;;-2.81;100.00
11487;BME280;10510;47.942;9.442;2023-03-03T04:58:01;94644.91;;;-2.78;100.00
11487;BME280;10510;47.942;9.442;2023-03-03T05:00:01;94643.16;;;-2.77;100.00
11487;BME280;10510;47.942;9.442;2023-03-03T05:02:02;94641.31;;;-2.75;100.00
11487;BME280;10510;47.942;9.442;2023-03-03T05:04:03;94645.41;;;-2.72;100.00
11487;BME280;10510;47.942;9.442;2023-03-03T05:06:04;94640.09;;;-2.69;100.00
11487;BME280;10510;47.942;9.442;2023-03-03T05:08:04;94650.94;;;-2.66;100.00
11487;BME280;10510;47.942;9.442;2023-03-03T05:10:06;94637.94;;;-2.63;100.00
11487;BME280;10510;47.942;9.442;2023-03-03T05:12:06;94649.50;;;-2.57;100.00
11487;BME280;10510;47.942;9.442;2023-03-03T05:14:07;94650.00;;;-2.52;100.00
11487;BME280;10510;47.942;9.442;2023-03-03T05:16:07;94658.22;;;-2.47;100.00
11487;BME280;10510;47.942;9.442;2023-03-03T05:18:08;94653.56;;;-2.42;100.00
11487;BME280;10510;47.942;9.442;2023-03-03T05:20:09;94650.72;;;-2.37;100.00
11487;BME280;10510;47.942;9.442;2023-03-03T05:22:09;94653.16;;;-2.36;100.00
11487;BME280;10510;47.942;9.442;2023-03-03T05:24:11;94657.16;;;-2.32;100.00
11487;BME280;10510;47.942;9.442;2023-03-03T05:26:12;94655.00;;;-2.25;100.00
11487;BME280;10510;47.942;9.442;2023-03-03T05:28:12;94649.56;;;-2.20;100.00
11487;BME280;10510;47.942;9.442;2023-03-03T05:30:12;94657.63;;;-2.14;100.00
11487;BME280;10510;47.942;9.442;2023-03-03T05:32:13;94657.41;;;-2.11;100.00
11487;BME280;10510;47.942;9.442;2023-03-03T05:34:13;94654.53;;;-2.06;100.00
11487;BME280;10510;47.942;9.442;2023-03-03T05:36:14;94651.75;;;-2.03;100.00
11487;BME280;10510;47.942;9.442;2023-03-03T05:38:14;94651.56;;;-2.00;100.00
11487;BME280;10510;47.942;9.442;2023-03-03T05:40:14;94653.78;;;-1.95;100.00
11487;BME280;10510;47.942;9.442;2023-03-03T05:42:15;94653.34;;;-1.89;100.00
11487;BME280;10510;47.942;9.442;2023-03-03T05:44:15;94649.75;;;-1.87;100.00
11487;BME280;10510;47.942;9.442;2023-03-03T05:46:15;94658.06;;;-1.83;100.00
11487;BME280;10510;47.942;9.442;2023-03-03T05:48:16;94655.28;;;-1.80;100.00
11487;BME280;10510;47.942;9.442;2023-03-03T05:50:17;94660.31;;;-1.78;100.00
11487;BME280;10510;47.942;9.442;2023-03-03T05:52:18;94658.34;;;-1.75;100.00
11487;BME280;10510;47.942;9.442;2023-03-03T05:54:18;94658.13;;;-1.72;100.00
11487;BME280;10510;47.942;9.442;2023-03-03T05:56:18;94663.03;;;-1.69;100.00
11487;BME280;10510;47.942;9.442;2023-03-03T05:58:19;94675.53;;;-1.64;100.00
11487;BME280;10510;47.942;9.442;2023-03-03T06:00:20;94671.94;;;-1.62;100.00
11487;BME280;10510;47.942;9.442;2023-03-03T06:02:20;94679.41;;;-1.58;100.00
11487;BME280;10510;47.942;9.442;2023-03-03T06:04:20;94681.75;;;-1.55;100.00
11487;BME280;10510;47.942;9.442;2023-03-03T06:06:21;94682.34;;;-1.52;100.00
11487;BME280;10510;47.942;9.442;2023-03-03T06:08:21;94675.38;;;-1.50;100.00
11487;BME280;10510;47.942;9.442;2023-03-03T06:10:21;94680.28;;;-1.47;100.00
11487;BME280;10510;47.942;9.442;2023-03-03T06:12:22;94679.94;;;-1.42;100.00
11487;BME280;10510;47.942;9.442;2023-03-03T06:14:22;94683.09;;;-1.39;100.00
11487;BME280;10510;47.942;9.442;2023-03-03T06:16:22;94687.91;;;-1.34;100.00
11487;BME280;10510;47.942;9.442;2023-03-03T06:18:22;94687.59;;;-1.29;100.00
11487;BME280;10510;47.942;9.442;2023-03-03T06:20:23;94692.28;;;-1.23;100.00
11487;BME280;10510;47.942;9.442;2023-03-03T06:22:23;94686.06;;;-1.21;100.00
11487;BME280;10510;47.942;9.442;2023-03-03T06:24:23;94690.88;;;-1.16;100.00
11487;BME280;10510;47.942;9.442;2023-03-03T06:26:25;94697.44;;;-1.12;100.00
11487;BME280;10510;47.942;9.442;2023-03-03T06:28:25;94701.53;;;-1.09;100.00
11487;BME280;10510;47.942;9.442;2023-03-03T06:30:26;94698.63;;;-1.05;100.00
11487;BME280;10510;47.942;9.442;2023-03-03T06:32:27;94691.66;;;-1.03;100.00
11487;BME280;10510;47.942;9.442;2023-03-03T06:34:27;94692.34;;;-1.01;100.00
11487;BME280;10510;47.942;9.442;2023-03-03T06:36:27;94693.06;;;-0.99;100.00
11487;BME280;10510;47.942;9.442;2023-03-03T06:38:28;94696.34;;;-0.97;100.00
11487;BME280;10510;47.942;9.442;2023-03-03T06:40:28;94697.72;;;-0.93;100.00
11487;BME280;10510;47.942;9.442;2023-03-03T06:42:28;94691.78;;;-0.93;100.00
11487;BME280;10510;47.942;9.442;2023-03-03T06:44:29;94702.88;;;-0.93;100.00
11487;BME280;10510;47.942;9.442;2023-03-03T06:46:29;94710.34;;;-0.89;100.00
11487;BME280;10510;47.942;9.442;2023-03-03T06:48:31;94717.94;;;-0.88;100.00
11487;BME280;10510;47.942;9.442;2023-03-03T06:50:31;94701.59;;;-0.87;100.00
11487;BME280;10510;47.942;9.442;2023-03-03T06:52:31;94699.75;;;-0.85;100.00
11487;BME280;10510;47.942;9.442;2023-03-03T06:54:32;94712.44;;;-0.83;100.00
11487;BME280;10510;47.942;9.442;2023-03-03T06:56:35;94717.59;;;-0.83;100.00
11487;BME280;10510;47.942;9.442;2023-03-03T06:58:36;94716.56;;;-0.81;100.00
11487;BME280;10510;47.942;9.442;2023-03-03T07:00:36;94717.38;;;-0.80;100.00
11487;BME280;10510;47.942;9.442;2023-03-03T07:02:36;94716.44;;;-0.79;100.00
11487;BME280;10510;47.942;9.442;2023-03-03T07:04:36;94714.56;;;-0.77;100.00
11487;BME280;10510;47.942;9.442;2023-03-03T07:06:38;94723.22;;;-0.78;100.00
11487;BME280;10510;47.942;9.442;2023-03-03T07:08:39;94713.03;;;-0.80;100.00
11487;BME280;10510;47.942;9.442;2023-03-03T07:10:40;94725.78;;;-0.78;100.00
11487;BME280;10510;47.942;9.442;2023-03-03T07:12:41;94724.16;;;-0.79;100.00
11487;BME280;10510;47.942;9.442;2023-03-03T07:14:46;94725.78;;;-0.78;100.00
11487;BME280;10510;47.942;9.442;2023-03-03T07:16:52;94722.19;;;-0.76;100.00
11487;BME280;10510;47.942;9.442;2023-03-03T07:18:59;94728.94;;;-0.75;100.00
11487;BME280;10510;47.942;9.442;2023-03-03T07:21:25;94734.78;;;-0.73;100.00
11487;BME280;10510;47.942;9.442;2023-03-03T07:23:36;94728.59;;;-0.70;100.00
11487;BME280;10510;47.942;9.442;2023-03-03T07:25:43;94731.84;;;-0.68;100.00
11487;BME280;10510;47.942;9.442;2023-03-03T07:27:45;94738.66;;;-0.67;100.00
11487;BME280;10510;47.942;9.442;2023-03-03T07:29:47;94740.28;;;-0.66;100.00
11487;BME280;10510;47.942;9.442;2023-03-03T07:31:48;94741.91;;;-0.65;100.00
11487;BME280;10510;47.942;9.442;2023-03-03T07:33:49;94737.72;;;-0.66;100.00
11487;BME280;10510;47.942;9.442;2023-03-03T07:35:49;94740.19;;;-0.64;100.00
11487;BME280;10510;47.942;9.442;2023-03-03T07:37:49;94735.84;;;-0.64;100.00
11487;BME280;10510;47.942;9.442;2023-03-03T07:39:50;94738.41;;;-0.64;100.00
11487;BME280;10510;47.942;9.442;2023-03-03T07:41:50;94742.84;;;-0.66;100.00
11487;BME280;10510;47.942;9.442;2023-03-03T07:44:05;94748.69;;;-0.64;100.00
11487;BME280;10510;47.942;9.442;2023-03-03T07:50:18;94741.69;;;-0.62;100.00
11487;BME280;10510;47.942;9.442;2023-03-03T07:52:41;94742.28;;;-0.58;100.00
11487;BME280;10510;47.942;9.442;2023-03-03T07:54:42;94745.31;;;-0.53;100.00
11487;BME280;10510;47.942;9.442;2023-03-03T07:56:45;94742.31;;;-0.47;100.00
11487;BME280;10510;47.942;9.442;2023-03-03T07:58:46;94758.19;;;-0.42;100.00
11487;BME280;10510;47.942;9.442;2023-03-03T08:03:24;94759.84;;;-0.30;100.00
11487;BME280;10510;47.942;9.442;2023-03-03T08:07:30;94764.06;;;-0.29;100.00
11487;BME280;10510;47.942;9.442;2023-03-03T08:09:41;94772.13;;;-0.22;100.00
11487;BME280;10510;47.942;9.442;2023-03-03T08:11:54;94770.72;;;-0.15;100.00
11487;BME280;10510;47.942;9.442;2023-03-03T08:13:56;94765.59;;;-0.15;100.00
11487;BME280;10510;47.942;9.442;2023-03-03T08:18:27;94768.06;;;-0.02;100.00
11487;BME280;10510;47.942;9.442;2023-03-03T08:22:33;94773.44;;;0.06;100.00
11487;BME280;10510;47.942;9.442;2023-03-03T08:24:37;94780.78;;;0.11;100.00
11487;BME280;10510;47.942;9.442;2023-03-03T08:26:37;94780.47;;;0.15;100.00
11487;BME280;10510;47.942;9.442;2023-03-03T08:28:37;94781.97;;;0.18;100.00
11487;BME280;10510;47.942;9.442;2023-03-03T08:30:37;94789.22;;;0.24;100.00
11487;BME280;10510;47.942;9.442;2023-03-03T08:32:38;94785.38;;;0.30;100.00
11487;BME280;10510;47.942;9.442;2023-03-03T08:34:38;94778.00;;;0.36;100.00
11487;BME280;10510;47.942;9.442;2023-03-03T08:36:38;94783.63;;;0.41;100.00
11487;BME280;10510;47.942;9.442;2023-03-03T08:38:39;94777.16;;;0.47;100.00
11487;BME280;10510;47.942;9.442;2023-03-03T08:40:40;94768.38;;;0.50;100.00
11487;BME280;10510;47.942;9.442;2023-03-03T08:42:40;94777.53;;;0.54;100.00
11487;BME280;10510;47.942;9.442;2023-03-03T08:44:40;94780.66;;;0.57;100.00
11487;BME280;10510;47.942;9.442;2023-03-03T08:46:41;94771.91;;;0.60;100.00
11487;BME280;10510;47.942;9.442;2023-03-03T08:48:43;94762.75;;;0.67;100.00
11487;BME280;10510;47.942;9.442;2023-03-03T08:50:44;94769.63;;;0.78;100.00
11487;BME280;10510;47.942;9.442;2023-03-03T08:52:45;94766.22;;;0.88;100.00
11487;BME280;10510;47.942;9.442;2023-03-03T08:54:45;94769.59;;;1.00;100.00
11487;BME280;10510;47.942;9.442;2023-03-03T08:56:45;94768.03;;;1.09;100.00
11487;BME280;10510;47.942;9.442;2023-03-03T08:58:45;94769.88;;;1.18;100.00
11487;BME280;10510;47.942;9.442;2023-03-03T09:00:47;94769.69;;;1.31;100.00
11487;BME280;10510;47.942;9.442;2023-03-03T09:02:48;94761.13;;;1.42;100.00
11487;BME280;10510;47.942;9.442;2023-03-03T09:04:49;94771.59;;;1.50;100.00
11487;BME280;10510;47.942;9.442;2023-03-03T09:06:49;94777.66;;;1.60;100.00
11487;BME280;10510;47.942;9.442;2023-03-03T09:08:50;94778.09;;;1.65;100.00
11487;BME280;10510;47.942;9.442;2023-03-03T09:10:50;94771.88;;;1.68;100.00
11487;BME280;10510;47.942;9.442;2023-03-03T09:12:50;94780.16;;;1.71;100.00
11487;BME280;10510;47.942;9.442;2023-03-03T09:14:51;94787.50;;;1.76;100.00
11487;BME280;10510;47.942;9.442;2023-03-03T09:16:52;94774.38;;;1.79;100.00
11487;BME280;10510;47.942;9.442;2023-03-03T09:18:53;94772.63;;;1.79;100.00
11487;BME280;10510;47.942;9.442;2023-03-03T09:20:54;94783.25;;;1.86;100.00
11487;BME280;10510;47.942;9.442;2023-03-03T09:22:57;94783.69;;;1.91;100.00
11487;BME280;10510;47.942;9.442;2023-03-03T09:24:58;94779.47;;;1.90;100.00
11487;BME280;10510;47.942;9.442;2023-03-03T09:26:59;94780.28;;;1.91;100.00
11487;BME280;10510;47.942;9.442;2023-03-03T09:31:21;94784.28;;;2.04;100.00
11487;BME280;10510;47.942;9.442;2023-03-03T09:33:26;94784.47;;;2.13;100.00
11487;BME280;10510;47.942;9.442;2023-03-03T09:35:38;94788.03;;;2.21;100.00
11487;BME280;10510;47.942;9.442;2023-03-03T09:37:40;94797.03;;;2.27;100.00
11487;BME280;10510;47.942;9.442;2023-03-03T09:39:40;94790.03;;;2.39;100.00
11487;BME280;10510;47.942;9.442;2023-03-03T09:44:21;94786.41;;;2.51;100.00
11487;BME280;10510;47.942;9.442;2023-03-03T09:47:00;94788.31;;;2.59;100.00
11487;BME280;10510;47.942;9.442;2023-03-03T09:51:31;94790.97;;;2.88;100.00
11487;BME280;10510;47.942;9.442;2023-03-03T09:55:49;94789.66;;;3.03;100.00
11487;BME280;10510;47.942;9.442;2023-03-03T10:04:59;94792.81;;;3.55;100.00
11487;BME280;10510;47.942;9.442;2023-03-03T10:14:23;94792.63;;;4.05;100.00
11487;BME280;10510;47.942;9.442;2023-03-03T10:16:47;94799.00;;;4.21;100.00
11487;BME280;10510;47.942;9.442;2023-03-03T10:19:01;94798.03;;;4.22;100.00
11487;BME280;10510;47.942;9.442;2023-03-03T10:21:15;94800.06;;;4.28;100.00
11487;BME280;10510;47.942;9.442;2023-03-03T10:25:55;94795.00;;;4.36;100.00
11487;BME280;10510;47.942;9.442;2023-03-03T10:33:28;94805.34;;;4.26;100.00
11487;BME280;10510;47.942;9.442;2023-03-03T10:40:24;94803.69;;;4.35;100.00
11487;BME280;10510;47.942;9.442;2023-03-03T10:42:38;94808.59;;;4.38;100.00
11487;BME280;10510;47.942;9.442;2023-03-03T10:51:28;94804.22;;;4.48;100.00
11487;BME280;10510;47.942;9.442;2023-03-03T10:53:45;94807.44;;;4.60;100.00
11487;BME280;10510;47.942;9.442;2023-03-03T10:56:12;94800.19;;;4.64;100.00
11487;BME280;10510;47.942;9.442;2023-03-03T10:58:23;94807.69;;;4.67;100.00
11487;BME280;10510;47.942;9.442;2023-03-03T11:04:58;94802.16;;;4.52;100.00
11487;BME280;10510;47.942;9.442;2023-03-03T11:09:38;94800.09;;;4.55;100.00
11487;BME280;10510;47.942;9.442;2023-03-03T11:11:56;94796.84;;;4.53;100.00
11487;BME280;10510;47.942;9.442;2023-03-03T11:14:10;94793.56;;;4.51;100.00
11487;BME280;10510;47.942;9.442;2023-03-03T11:16:19;94794.53;;;4.50;100.00
11487;BME280;10510;47.942;9.442;2023-03-03T11:19:20;94792.75;;;4.51;100.00
11487;BME280;10510;47.942;9.442;2023-03-03T11:21:14;94788.41;;;4.51;100.00
11487;BME280;10510;47.942;9.442;2023-03-03T11:35:34;94791.28;;;4.76;100.00
11487;BME280;10510;47.942;9.442;2023-03-03T11:39:56;94789.47;;;4.86;100.00
11487;BME280;10510;47.942;9.442;2023-03-03T11:42:20;94781.13;;;4.92;100.00
11487;BME280;10510;47.942;9.442;2023-03-03T11:44:32;94783.25;;;4.97;100.00
11487;BME280;10510;47.942;9.442;2023-03-03T11:49:00;94784.63;;;5.01;100.00
11487;BME280;10510;47.942;9.442;2023-03-03T11:51:12;94787.31;;;5.09;100.00
11487;BME280;10510;47.942;9.442;2023-03-03T11:55:26;94783.34;;;5.05;100.00
11487;BME280;10510;47.942;9.442;2023-03-03T11:57:38;94784.03;;;5.07;100.00
11487;BME280;10510;47.942;9.442;2023-03-03T11:59:47;94782.63;;;5.13;100.00
11487;BME280;10510;47.942;9.442;2023-03-03T12:04:09;94781.47;;;5.25;100.00
11487;BME280;10510;47.942;9.442;2023-03-03T12:10:46;94780.22;;;5.65;100.00
11487;BME280;10510;47.942;9.442;2023-03-03T12:13:02;94780.56;;;5.70;100.00
11487;BME280;10510;47.942;9.442;2023-03-03T12:15:26;94777.22;;;5.78;100.00
11487;BME280;10510;47.942;9.442;2023-03-03T12:19:47;94775.34;;;5.88;100.00
11487;BME280;10510;47.942;9.442;2023-03-03T12:22:07;94772.44;;;5.91;100.00